Terminal Aerodrome Forecast
Issued by NWS Wakefield, VA

Home | Current Version | Previous Version | Text Only | Print | Product List | Glossary On
Versions: 1 2 3 4 5 6 7 8 9 10 11 12 13 14 15
000
FTUS41 KAKQ 300520
TAFRIC
TAF
KRIC 300520Z 3006/3106 19010KT P6SM BKN150
     FM301000 20011KT P6SM VCSH BKN040
     FM301400 23013G20KT P6SM BKN040
     FM301800 27015G22KT P6SM BKN060
     FM310000 29008KT P6SM SCT250=

USA.gov is the U.S. government's official web portal to all federal, state and local government web resources and services.